Time;durP1;ratioP1;P1;durP2;ratioP2;P2;SDS_P1;SDS_P2;PMS_P1;PMS_P2;Temp;Humidity;BMP_temperature;BMP_pressure;BME280_temperature;BME280_humidity;BME280_pressure;Samples;Min_cycle;Max_cycle;Signal;HPM_P1;HPM_P2
2022/01/26 00:00:08;;;;;;;75.57;31.35;;;;;;;2.83;81.80;101590.13;5014302;28;20030;-62
2022/01/26 00:08:16;;;;;;;72.97;29.02;;;;;;;2.83;82.25;101586.69;4980504;28;20501;-63
2022/01/26 00:10:44;;;;;;;70.70;30.88;;;;;;;2.82;82.01;101579.78;5013919;28;20034;-62
2022/01/26 00:13:12;;;;;;;74.22;30.75;;;;;;;2.82;82.63;101572.09;4996242;28;20030;-62
2022/01/26 00:15:37;;;;;;;80.03;31.05;;;;;;;2.83;81.83;101590.13;5014057;28;20042;-62
2022/01/26 00:18:03;;;;;;;77.60;30.17;;;;;;;2.83;82.62;101584.13;4996163;28;20092;-63
2022/01/26 00:20:38;;;;;;;75.50;30.67;;;;;;;2.82;82.24;101580.66;5013757;28;20503;-62
2022/01/26 00:23:34;;;;;;;73.25;28.92;;;;;;;2.81;81.77;101578.88;5013770;28;20504;-62
2022/01/26 00:26:08;;;;;;;68.72;26.98;;;;;;;2.80;81.65;101573.66;5013602;28;20497;-62
2022/01/26 00:39:34;;;;;;;63.72;25.75;;;;;;;2.78;82.41;101572.63;5017381;28;20370;-63
2022/01/26 00:42:07;;;;;;;67.18;27.52;;;;;;;2.78;82.21;101572.63;5017720;28;20034;-63
2022/01/26 00:44:40;;;;;;;61.83;25.50;;;;;;;2.78;82.08;101576.13;4983679;28;20489;-64
2022/01/26 00:47:09;;;;;;;67.95;25.13;;;;;;;2.78;82.28;101573.56;5017644;28;20112;-64
2022/01/26 00:49:37;;;;;;;60.25;26.67;;;;;;;2.80;81.87;101569.44;5000161;28;20038;-64
2022/01/26 00:52:06;;;;;;;55.38;26.23;;;;;;;2.80;82.23;101561.75;5017614;28;20445;-64
2022/01/26 00:54:37;;;;;;;63.97;27.67;;;;;;;2.80;82.24;101566.88;4983727;28;20481;-64
2022/01/26 00:57:03;;;;;;;51.58;22.70;;;;;;;2.81;81.77;101572.88;4983507;28;20061;-63
2022/01/26 00:59:32;;;;;;;63.58;26.42;;;;;;;2.80;82.31;101565.97;5017512;28;20169;-62
2022/01/26 01:02:01;;;;;;;62.15;28.00;;;;;;;2.81;82.02;101565.19;4983636;28;20080;-63
2022/01/26 01:04:29;;;;;;;57.42;26.52;;;;;;;2.80;82.13;101564.31;5017233;28;20038;-63
2022/01/26 01:06:59;;;;;;;63.15;26.25;;;;;;;2.79;82.31;101575.34;4999760;28;20060;-63
2022/01/26 01:09:32;;;;;;;65.95;27.90;;;;;;;2.81;81.98;101588.22;4983423;28;20048;-63
2022/01/26 01:12:05;;;;;;;54.80;22.33;;;;;;;2.80;81.83;101586.44;4999901;28;20053;-62
2022/01/26 01:14:37;;;;;;;58.20;23.25;;;;;;;2.80;82.04;101574.56;5017335;28;20046;-63
2022/01/26 01:17:09;;;;;;;53.80;23.15;;;;;;;2.80;81.96;101581.31;5017102;28;20049;-63
2022/01/26 01:19:52;;;;;;;55.65;23.83;;;;;;;2.79;81.75;101583.00;5016936;28;20061;-63
2022/01/26 01:22:39;;;;;;;51.17;20.90;;;;;;;2.76;81.91;101587.91;4983108;28;20404;-63
2022/01/26 01:30:43;;;;;;;52.45;23.42;;;;;;;2.75;82.10;101583.56;4999242;28;20463;-63
2022/01/26 01:33:17;;;;;;;53.17;23.55;;;;;;;2.75;82.22;101586.13;5017284;28;20501;-62
2022/01/26 01:35:47;;;;;;;52.75;23.58;;;;;;;2.74;81.93;101584.34;4999261;28;20485;-63
2022/01/26 01:38:20;;;;;;;52.13;22.90;;;;;;;2.76;81.91;101587.91;4999152;28;20038;-64
2022/01/26 01:40:50;;;;;;;56.17;21.97;;;;;;;2.73;82.03;101583.44;5016973;28;20377;-63
2022/01/26 01:43:18;;;;;;;52.35;22.38;;;;;;;2.73;82.22;101590.25;4983093;28;20699;-63
2022/01/26 01:45:48;;;;;;;44.55;21.00;;;;;;;2.72;82.34;101589.38;4998901;28;20038;-64
2022/01/26 01:48:21;;;;;;;51.88;21.45;;;;;;;2.74;81.88;101592.91;4999248;28;20026;-63
2022/01/26 01:50:49;;;;;;;45.70;21.13;;;;;;;2.76;81.76;101592.13;4998715;28;20060;-63
2022/01/26 01:53:18;;;;;;;49.75;20.80;;;;;;;2.75;81.93;101593.81;5016275;28;20539;-63
2022/01/26 01:55:50;;;;;;;51.72;21.27;;;;;;;2.73;81.63;101590.25;4982437;28;20033;-63
2022/01/26 01:58:18;;;;;;;46.63;21.75;;;;;;;2.74;81.65;101585.22;4982478;28;20033;-63
2022/01/26 02:00:46;;;;;;;44.35;20.48;;;;;;;2.76;82.00;101584.44;4983025;28;20049;-63
2022/01/26 02:03:12;;;;;;;45.85;20.90;;;;;;;2.76;81.92;101582.78;4982124;28;20064;-63
2022/01/26 02:05:40;;;;;;;46.45;20.65;;;;;;;2.76;82.40;101587.00;5016035;28;20038;-62
2022/01/26 02:08:08;;;;;;;39.90;19.85;;;;;;;2.78;81.79;101588.00;5016297;28;20045;-63
2022/01/26 02:10:37;;;;;;;44.95;20.42;;;;;;;2.77;82.20;101588.78;4982495;28;20049;-63
2022/01/26 02:13:32;;;;;;;40.88;18.70;;;;;;;2.75;81.58;101586.13;4982853;28;20037;-64
2022/01/26 02:16:16;;;;;;;45.47;20.35;;;;;;;2.76;81.97;101589.56;4998275;28;20044;-63
2022/01/26 02:52:12;;;;;;;35.67;17.77;;;;;;;2.70;81.75;101543.94;5015581;28;20065;-63
2022/01/26 02:57:33;;;;;;;40.15;19.65;;;;;;;2.69;81.77;101532.81;4998289;28;20041;-63
2022/01/26 03:04:55;;;;;;;37.88;19.60;;;;;;;2.70;81.82;101534.59;5015151;28;20678;-63
2022/01/26 03:10:33;;;;;;;;;;;;;;;2.69;81.97;101544.69;5015913;28;20038;-63
2022/01/26 03:13:04;;;;;;;38.50;19.15;;;;;;;2.70;82.10;101546.47;4996360;28;20379;-63
2022/01/26 03:15:41;;;;;;;42.15;20.60;;;;;;;2.70;82.59;101537.16;5014884;28;20038;-63
2022/01/26 03:18:51;;;;;;;42.47;20.55;;;;;;;2.71;81.90;101535.47;4997357;28;20413;-63
2022/01/26 03:21:01;;;;;;;41.50;20.17;;;;;;;2.71;82.35;101525.22;5011537;28;20085;-62
2022/01/26 03:29:12;;;;;;;44.40;21.63;;;;;;;2.69;81.94;101525.13;5014676;28;20057;-63
2022/01/26 03:36:45;;;;;;;50.58;22.13;;;;;;;2.70;82.07;101510.63;5014454;28;20398;-63
2022/01/26 03:39:17;;;;;;;54.38;23.17;;;;;;;2.70;82.40;101505.53;5014615;28;20041;-63
2022/01/26 03:41:49;;;;;;;53.88;24.38;;;;;;;2.70;81.74;101506.44;4996989;28;20069;-63
2022/01/26 03:44:21;;;;;;;52.50;24.00;;;;;;;2.71;82.23;101513.34;4980494;28;20026;-64
2022/01/26 03:46:50;;;;;;;57.15;25.05;;;;;;;2.71;82.25;101507.31;4997357;28;20041;-64
2022/01/26 03:49:18;;;;;;;49.53;25.48;;;;;;;2.71;82.07;101502.19;4980753;28;20029;-63
2022/01/26 03:51:46;;;;;;;54.97;24.88;;;;;;;2.71;82.45;101495.41;5014216;28;20056;-64
2022/01/26 03:54:19;;;;;;;69.38;31.73;;;;;;;2.70;82.13;101498.75;4980519;28;20037;-64
2022/01/26 03:56:50;;;;;;;71.68;30.90;;;;;;;2.69;81.92;101503.75;5014205;28;20128;-64
2022/01/26 03:59:18;;;;;;;71.88;30.85;;;;;;;2.68;82.24;101507.97;4980547;28;20030;-62
2022/01/26 04:01:47;;;;;;;96.05;38.22;;;;;;;2.69;82.01;101496.97;5014174;28;20133;-63
2022/01/26 04:04:14;;;;;;;81.68;35.67;;;;;;;2.68;82.37;101497.75;5014019;28;20033;-64
2022/01/26 04:06:40;;;;;;;84.72;36.63;;;;;;;2.65;81.79;101502.63;5013879;28;20037;-63
2022/01/26 04:09:09;;;;;;;91.13;38.80;;;;;;;2.62;82.15;101504.09;4996119;28;20045;-62
2022/01/26 04:11:41;;;;;;;74.38;32.45;;;;;;;2.65;81.87;101502.63;5013843;28;20072;-63
2022/01/26 04:14:13;;;;;;;84.35;35.17;;;;;;;2.65;82.06;101500.06;5014126;28;20042;-63
2022/01/26 04:16:41;;;;;;;88.40;36.58;;;;;;;2.63;81.71;101496.50;4996789;28;20040;-63
2022/01/26 04:19:07;;;;;;;83.15;34.70;;;;;;;2.65;82.41;101507.75;5013829;28;20038;-63
2022/01/26 04:22:05;;;;;;;87.97;37.75;;;;;;;2.65;82.15;101505.19;4980244;28;20077;-63
2022/01/26 04:24:36;;;;;;;90.90;36.33;;;;;;;2.66;81.88;101508.63;5013362;28;20512;-63
2022/01/26 04:27:27;;;;;;;83.03;36.38;;;;;;;2.65;81.62;101520.56;4980373;28;20115;-62
2022/01/26 04:29:55;;;;;;;84.28;35.40;;;;;;;2.63;82.26;101506.75;5013787;28;20379;-63
2022/01/26 04:32:24;;;;;;;88.07;36.28;;;;;;;2.64;81.66;101503.41;4979829;28;20111;-63
2022/01/26 04:34:49;;;;;;;95.60;39.17;;;;;;;2.62;82.43;101493.84;4996128;28;20042;-63
2022/01/26 04:40:08;;;;;;;100.70;41.90;;;;;;;2.62;82.04;101512.66;5013455;28;20053;-64
2022/01/26 04:42:59;;;;;;;98.03;39.00;;;;;;;2.63;82.50;101518.69;4980019;28;20045;-62
2022/01/26 04:45:28;;;;;;;98.85;40.30;;;;;;;2.63;82.17;101522.13;4995821;28;20124;-62
2022/01/26 04:47:53;;;;;;;104.95;40.20;;;;;;;2.64;81.95;101516.22;4979788;28;20034;-63
2022/01/26 04:50:21;;;;;;;95.65;40.95;;;;;;;2.63;81.92;101517.00;5013559;28;20496;-62
2022/01/26 04:52:47;;;;;;;101.22;44.00;;;;;;;2.62;81.96;101507.53;5013299;28;20042;-63
2022/01/26 04:55:21;;;;;;;90.32;38.67;;;;;;;2.63;82.35;101521.25;5013460;28;20046;-63
2022/01/26 04:57:49;;;;;;;98.82;41.55;;;;;;;2.63;81.77;101528.91;4979715;28;20042;-63
2022/01/26 05:00:20;;;;;;;103.30;40.30;;;;;;;2.63;82.03;101540.03;4979675;28;20038;-63
2022/01/26 05:02:48;;;;;;;103.90;41.08;;;;;;;2.65;81.97;101556.41;4978931;28;20061;-63
2022/01/26 05:05:19;;;;;;;99.97;42.83;;;;;;;2.66;81.88;101545.38;4978982;28;20124;-63
2022/01/26 05:07:46;;;;;;;97.13;40.83;;;;;;;2.68;81.69;101542.91;4978805;28;20412;-63
2022/01/26 05:10:15;;;;;;;104.13;41.10;;;;;;;2.67;82.07;101551.38;5012392;28;20117;-62
2022/01/26 05:12:41;;;;;;;106.00;42.30;;;;;;;2.66;81.88;101545.38;4978618;28;20041;-62
2022/01/26 05:15:07;;;;;;;110.55;42.78;;;;;;;2.66;82.36;101535.16;4978971;28;20121;-63
2022/01/26 05:17:36;;;;;;;108.32;42.08;;;;;;;2.66;82.28;101549.59;5012251;28;20038;-63
2022/01/26 05:20:08;;;;;;;106.50;43.50;;;;;;;2.64;81.81;101552.06;5012285;28;20038;-62
2022/01/26 05:22:39;;;;;;;107.25;41.58;;;;;;;2.63;81.87;101549.41;5012565;28;20501;-64
2022/01/26 05:25:11;;;;;;;112.95;43.88;;;;;;;2.63;81.36;101557.09;5014165;28;20030;-63
2022/01/26 05:27:37;;;;;;;106.30;43.90;;;;;;;2.63;81.56;101565.63;4998479;28;20034;-62
2022/01/26 05:30:06;;;;;;;107.68;41.55;;;;;;;2.63;81.95;101575.00;5015599;28;20428;-63
2022/01/26 05:32:34;;;;;;;105.10;40.45;;;;;;;2.64;81.39;101587.91;5015556;28;20041;-62
2022/01/26 05:35:00;;;;;;;115.57;45.55;;;;;;;2.63;82.23;101587.81;4981682;28;20038;-62
2022/01/26 05:37:25;;;;;;;112.35;43.53;;;;;;;2.62;82.12;101580.91;5015619;28;20042;-63
2022/01/26 05:39:51;;;;;;;105.95;42.90;;;;;;;2.62;81.77;101591.13;5015440;28;20038;-63
2022/01/26 05:42:19;;;;;;;109.43;43.03;;;;;;;2.59;81.92;101595.25;5015287;28;20042;-63
2022/01/26 05:44:45;;;;;;;117.18;43.35;;;;;;;2.59;82.11;101586.66;5015179;28;20033;-63
2022/01/26 05:47:16;;;;;;;109.28;42.55;;;;;;;2.60;82.07;101583.31;5015275;28;20093;-63
2022/01/26 05:49:50;;;;;;;99.75;40.42;;;;;;;2.58;82.11;101580.66;4981592;28;20045;-63
2022/01/26 05:52:21;;;;;;;119.38;44.47;;;;;;;2.58;81.58;101572.09;4998291;28;20366;-62
2022/01/26 05:54:46;;;;;;;104.68;42.97;;;;;;;2.58;82.12;101570.44;4997779;28;20065;-64
2022/01/26 05:57:14;;;;;;;102.63;40.85;;;;;;;2.59;81.80;101554.28;5015022;28;20128;-63
2022/01/26 05:59:45;;;;;;;114.38;43.58;;;;;;;2.59;82.11;101548.25;4981465;28;20065;-64
2022/01/26 06:02:13;;;;;;;112.85;45.17;;;;;;;2.57;81.66;101552.38;4974322;28;1182245;-63
2022/01/26 06:04:38;;;;;;;112.70;43.95;;;;;;;2.59;82.19;101555.94;5016283;28;20045;-63
2022/01/26 06:07:04;;;;;;;111.70;42.72;;;;;;;2.61;82.01;101550.97;5016159;28;20030;-63
2022/01/26 06:09:32;;;;;;;107.90;40.65;;;;;;;2.59;81.84;101549.19;5016227;28;20042;-63
2022/01/26 06:11:58;;;;;;;114.00;42.30;;;;;;;2.61;82.30;101556.06;5016045;28;20374;-64
2022/01/26 06:14:25;;;;;;;110.85;42.50;;;;;;;2.62;82.16;101560.41;4982140;28;20029;-63
2022/01/26 06:16:51;;;;;;;116.47;44.33;;;;;;;2.63;82.05;101564.75;4982364;28;20169;-63
2022/01/26 06:19:25;;;;;;;110.65;42.10;;;;;;;2.65;82.13;101558.09;4998107;28;20140;-63
2022/01/26 06:21:53;;;;;;;108.57;41.53;;;;;;;2.65;82.06;101545.28;4981872;28;20500;-64
2022/01/26 06:24:21;;;;;;;108.22;40.25;;;;;;;2.65;81.91;101518.00;4998164;28;20033;-63
2022/01/26 06:26:46;;;;;;;114.43;44.83;;;;;;;2.64;82.20;101512.78;4982079;28;20033;-63
2022/01/26 06:29:12;;;;;;;119.78;47.13;;;;;;;2.62;82.18;101507.53;5015756;28;20543;-63
2022/01/26 06:31:42;;;;;;;119.32;42.83;;;;;;;2.61;82.10;101502.31;5015587;28;20124;-63
2022/01/26 06:34:10;;;;;;;116.68;42.03;;;;;;;2.59;81.74;101503.09;4998154;28;20030;-63
2022/01/26 06:36:43;;;;;;;113.00;42.88;;;;;;;2.58;81.81;101520.88;5014451;28;20050;-63
2022/01/26 06:39:11;;;;;;;121.57;45.58;;;;;;;2.57;81.34;101520.00;4998094;28;20036;-63
2022/01/26 06:41:51;;;;;;;121.82;43.85;;;;;;;2.56;81.57;101517.34;5015271;28;20096;-63
2022/01/26 06:44:27;;;;;;;114.43;43.40;;;;;;;2.55;82.03;101523.25;4997693;28;20401;-63
2022/01/26 06:47:14;;;;;;;114.40;45.42;;;;;;;2.55;81.42;101525.81;5015438;28;20123;-63
2022/01/26 06:49:38;;;;;;;114.05;44.33;;;;;;;2.53;82.13;101525.69;5014903;28;20057;-63
2022/01/26 06:52:04;;;;;;;112.20;38.83;;;;;;;2.51;82.06;101517.00;4997749;28;20041;-63
2022/01/26 06:54:29;;;;;;;117.88;42.30;;;;;;;2.49;81.77;101520.22;4981742;28;20049;-63
2022/01/26 06:56:55;;;;;;;113.32;41.92;;;;;;;2.47;82.00;101522.69;5015385;28;20405;-63
2022/01/26 06:59:24;;;;;;;103.88;41.28;;;;;;;2.44;81.47;101520.78;5015611;28;20034;-64
2022/01/26 07:01:53;;;;;;;99.53;40.92;;;;;;;2.43;81.87;101521.56;4997170;28;20075;-62
2022/01/26 07:04:19;;;;;;;98.15;36.10;;;;;;;2.41;81.91;101522.25;4981258;28;20041;-62
2022/01/26 07:06:45;;;;;;;106.32;39.88;;;;;;;2.40;81.95;101521.38;5014912;28;20038;-63
2022/01/26 07:09:16;;;;;;;107.47;37.53;;;;;;;2.41;81.60;101545.28;4997333;28;20177;-63
2022/01/26 07:11:42;;;;;;;96.43;38.35;;;;;;;2.40;81.57;101536.72;5015240;28;20088;-63
2022/01/26 07:14:10;;;;;;;101.03;37.78;;;;;;;2.42;81.58;101540.25;5015264;28;20509;-62
2022/01/26 07:22:12;;;;;;;95.97;34.53;;;;;;;2.44;82.05;101550.63;5015073;28;20052;-63
2022/01/26 07:24:47;;;;;;;98.22;37.15;;;;;;;2.42;81.45;101535.13;4996749;28;20387;-62
2022/01/26 07:27:15;;;;;;;;;;;;;;;2.42;81.71;101536.81;4996844;28;20535;-63
2022/01/26 07:29:48;;;;;;;80.28;31.38;;;;;;;2.39;81.54;101545.16;4997012;28;19913;-63
2022/01/26 07:32:14;;;;;;;88.63;35.95;;;;;;;2.35;81.83;101545.72;4980893;28;20041;-64
2022/01/26 07:34:44;;;;;;;82.40;33.13;;;;;;;2.36;82.01;101549.16;5014731;28;20445;-63
2022/01/26 07:37:14;;;;;;;81.18;31.80;;;;;;;2.35;81.70;101537.13;4997463;28;20037;-63
2022/01/26 07:39:42;;;;;;;74.40;30.00;;;;;;;2.36;81.78;101529.59;5014433;28;20135;-63
2022/01/26 07:42:17;;;;;;;86.43;32.92;;;;;;;2.36;81.53;101529.59;4996914;28;20030;-64
2022/01/26 07:44:45;;;;;;;79.93;31.63;;;;;;;2.36;81.27;101547.50;4980557;28;20033;-63
2022/01/26 07:47:18;;;;;;;78.75;31.67;;;;;;;2.36;81.59;101550.06;4980100;28;20034;-63
2022/01/26 07:49:46;;;;;;;83.03;30.45;;;;;;;2.33;81.68;101554.94;4980674;28;20422;-63
2022/01/26 07:52:19;;;;;;;69.28;29.98;;;;;;;2.35;81.58;101562.72;4997236;28;20045;-63
2022/01/26 07:54:47;;;;;;;76.25;31.63;;;;;;;2.35;81.79;101568.75;4980606;28;20041;-64
2022/01/26 07:57:13;;;;;;;82.07;32.22;;;;;;;2.35;81.79;101560.16;5014072;28;20052;-64
2022/01/26 07:59:39;;;;;;;79.00;32.08;;;;;;;2.36;81.52;101554.25;4996295;28;20037;-64
2022/01/26 08:02:07;;;;;;;78.78;32.08;;;;;;;2.34;81.50;101566.06;5013778;28;20178;-63
2022/01/26 08:04:40;;;;;;;83.20;32.67;;;;;;;2.36;81.42;101572.19;5013785;28;20034;-64
2022/01/26 08:07:11;;;;;;;70.97;29.75;;;;;;;2.37;81.64;101580.00;5014176;28;20088;-63
2022/01/26 08:09:45;;;;;;;85.57;36.78;;;;;;;2.38;81.80;101568.06;5014018;28;20038;-63
2022/01/26 08:12:17;;;;;;;77.65;32.25;;;;;;;2.37;81.35;101563.72;5014216;28;20126;-62
2022/01/26 08:14:43;;;;;;;78.75;30.77;;;;;;;2.34;81.80;101574.63;5014359;28;20188;-63
2022/01/26 08:17:15;;;;;;;75.30;30.08;;;;;;;2.36;81.24;101579.84;5013748;28;20065;-63
2022/01/26 08:20:04;;;;;;;78.13;32.92;;;;;;;2.35;81.80;101573.88;5013858;28;20049;-63
2022/01/26 08:22:33;;;;;;;81.75;32.90;;;;;;;2.37;81.56;101538.13;4996304;28;20062;-63
2022/01/26 08:25:04;;;;;;;70.90;31.13;;;;;;;2.36;81.75;101539.81;5014019;28;20540;-63
2022/01/26 08:27:53;;;;;;;76.45;31.65;;;;;;;2.35;81.59;101571.31;4979860;28;20042;-63
2022/01/26 08:30:21;;;;;;;74.85;29.50;;;;;;;2.34;81.58;101561.84;4996305;28;20073;-63
2022/01/26 08:32:49;;;;;;;76.30;30.67;;;;;;;2.33;81.48;101549.81;5013936;28;20095;-63
2022/01/26 08:35:24;;;;;;;90.35;34.45;;;;;;;2.32;81.56;101568.50;5013944;28;20104;-63
2022/01/26 08:37:52;;;;;;;78.20;31.92;;;;;;;2.34;81.69;101578.84;4979845;28;20080;-63
2022/01/26 08:40:26;;;;;;;77.43;32.17;;;;;;;2.34;82.09;101559.28;5013721;28;20045;-63
2022/01/26 08:42:58;;;;;;;74.38;30.85;;;;;;;2.37;81.58;101561.16;4980088;28;20038;-62
2022/01/26 08:45:27;;;;;;;77.18;31.65;;;;;;;2.35;81.45;101561.06;5013469;28;20034;-63
2022/01/26 08:48:01;;;;;;;77.45;31.65;;;;;;;2.35;81.62;101575.50;5014250;28;20034;-63
2022/01/26 08:50:33;;;;;;;72.18;31.83;;;;;;;2.34;81.20;101586.53;4979587;28;20034;-62
2022/01/26 08:53:02;;;;;;;80.72;32.05;;;;;;;2.34;82.10;101586.53;4979637;28;20040;-63
2022/01/26 08:55:31;;;;;;;75.53;32.60;;;;;;;2.34;81.61;101602.78;4996355;28;20040;-64
2022/01/26 08:58:05;;;;;;;73.78;32.00;;;;;;;2.35;81.45;101606.22;4979632;28;20501;-63
2022/01/26 09:00:37;;;;;;;74.75;29.30;;;;;;;2.35;81.32;101602.00;4999384;28;20513;-63
2022/01/26 09:03:05;;;;;;;80.80;31.58;;;;;;;2.33;81.67;101603.56;4983250;28;20045;-63
2022/01/26 09:05:36;;;;;;;84.13;34.95;;;;;;;2.34;81.65;101623.25;4999709;28;20112;-63
2022/01/26 09:08:13;;;;;;;74.13;31.15;;;;;;;2.34;81.54;101625.81;5017339;28;20041;-63
2022/01/26 09:10:45;;;;;;;73.00;30.38;;;;;;;2.34;81.55;101610.47;4999614;28;20133;-63
2022/01/26 09:13:18;;;;;;;84.97;33.13;;;;;;;2.34;81.74;101607.91;5017533;28;20084;-63
2022/01/26 09:15:49;;;;;;;72.95;29.35;;;;;;;2.34;81.45;101599.31;5017199;28;20036;-63
2022/01/26 09:18:30;;;;;;;82.22;33.25;;;;;;;2.33;81.71;101606.13;4999361;28;20037;-62
2022/01/26 09:20:55;;;;;;;71.63;31.55;;;;;;;2.34;81.46;101610.47;5016948;28;20077;-63
2022/01/26 09:23:21;;;;;;;75.35;31.27;;;;;;;2.33;81.76;101606.13;5017195;28;20519;-64
2022/01/26 09:25:48;;;;;;;79.50;32.40;;;;;;;2.33;81.74;101600.13;5016852;28;20038;-63
2022/01/26 09:28:16;;;;;;;79.65;31.05;;;;;;;2.33;81.53;101595.00;5017009;28;20030;-63
2022/01/26 09:30:42;;;;;;;79.75;32.58;;;;;;;2.33;81.37;101603.56;5016839;28;20080;-63
2022/01/26 09:33:10;;;;;;;73.22;30.20;;;;;;;2.33;81.53;101597.56;5016553;28;20034;-62
2022/01/26 09:35:35;;;;;;;75.43;30.42;;;;;;;2.32;81.52;101611.13;4999038;28;20508;-64
2022/01/26 09:38:03;;;;;;;75.22;32.70;;;;;;;2.32;81.59;101613.69;5016499;28;20037;-63
2022/01/26 09:40:33;;;;;;;76.50;30.98;;;;;;;2.32;81.69;101614.56;4983350;28;20401;-62
2022/01/26 09:43:04;;;;;;;69.18;29.63;;;;;;;2.32;81.29;101617.13;4983154;28;20104;-62
2022/01/26 09:45:34;;;;;;;74.20;32.08;;;;;;;2.32;81.63;101622.25;5016590;28;20073;-63
2022/01/26 09:48:03;;;;;;;68.30;30.95;;;;;;;2.33;81.88;101618.91;4982565;28;20034;-63
2022/01/26 09:50:33;;;;;;;78.32;29.95;;;;;;;2.32;81.23;101619.69;4982643;28;20092;-63
2022/01/26 09:52:59;;;;;;;69.32;30.63;;;;;;;2.34;81.72;101619.78;4982980;28;20041;-63
2022/01/26 09:55:29;;;;;;;64.53;29.52;;;;;;;2.34;81.62;101620.69;4982755;28;20417;-63
2022/01/26 09:57:58;;;;;;;73.82;30.90;;;;;;;2.34;81.44;101622.34;4999107;28;20452;-63
2022/01/26 10:00:28;;;;;;;75.60;29.50;;;;;;;2.32;81.62;101616.25;4998964;28;20036;-62
2022/01/26 10:03:05;;;;;;;70.53;29.10;;;;;;;2.33;81.83;101615.47;4998730;28;20077;-62
2022/01/26 10:05:40;;;;;;;77.63;30.17;;;;;;;2.31;81.17;101620.47;4998716;28;20041;-62
2022/01/26 10:18:58;;;;;;;75.57;29.35;;;;;;;2.33;81.78;101628.28;4965830;28;20394;-62
2022/01/26 10:21:26;;;;;;;73.60;29.60;;;;;;;2.33;81.86;101624.03;4982114;28;20437;-63
2022/01/26 10:23:52;;;;;;;71.90;31.20;;;;;;;2.32;81.72;101626.50;4981948;28;20065;-63
2022/01/26 10:26:22;;;;;;;67.25;27.70;;;;;;;2.33;81.95;101629.16;4998661;28;20061;-64
2022/01/26 10:28:56;;;;;;;69.32;29.20;;;;;;;2.34;81.64;101618.13;5015770;28;20125;-64
2022/01/26 10:31:27;;;;;;;76.65;31.75;;;;;;;2.34;81.41;101624.91;4998120;28;20042;-62
2022/01/26 10:33:54;;;;;;;70.93;29.92;;;;;;;2.34;81.88;101618.13;4998206;28;20099;-62
2022/01/26 10:36:22;;;;;;;73.72;32.45;;;;;;;2.36;81.54;101631.94;4981751;28;20049;-63
2022/01/26 10:39:03;;;;;;;78.00;31.63;;;;;;;2.37;81.73;101627.69;5015766;28;20030;-63
2022/01/26 10:41:31;;;;;;;64.20;30.98;;;;;;;2.35;81.21;101625.03;5015648;28;20091;-63
2022/01/26 10:43:59;;;;;;;80.75;31.95;;;;;;;2.35;81.58;101612.25;4997986;28;20120;-62
2022/01/26 10:46:33;;;;;;;65.63;29.98;;;;;;;2.32;81.31;101596.66;5015392;28;20038;-62
2022/01/26 10:54:38;;;;;;;76.07;33.35;;;;;;;2.30;81.59;101587.97;5015298;28;20379;-63
2022/01/26 10:57:03;;;;;;;77.68;32.70;;;;;;;2.30;81.17;101587.97;4997766;28;20065;-63
2022/01/26 10:59:33;;;;;;;74.82;31.50;;;;;;;2.30;81.42;101581.97;5015173;28;20070;-64
2022/01/26 11:02:04;;;;;;;71.88;33.42;;;;;;;2.28;81.47;101585.31;4997477;28;20096;-63
2022/01/26 11:04:33;;;;;;;75.80;31.15;;;;;;;2.25;81.62;101577.41;4981212;28;20033;-63
2022/01/26 11:07:03;;;;;;;70.25;28.77;;;;;;;2.25;81.03;101568.84;4997604;28;20045;-63
2022/01/26 11:09:34;;;;;;;79.90;31.95;;;;;;;2.24;81.40;101570.50;4981429;28;20046;-63
2022/01/26 11:12:11;;;;;;;80.65;34.78;;;;;;;2.25;81.40;101562.06;4997568;28;20088;-64
2022/01/26 11:14:56;;;;;;;76.78;32.78;;;;;;;2.27;81.59;101567.28;5014904;28;20073;-63
2022/01/26 11:17:33;;;;;;;73.15;29.35;;;;;;;2.28;81.49;101566.50;4981415;28;20038;-63
2022/01/26 11:20:00;;;;;;;82.70;34.95;;;;;;;2.26;81.23;101573.16;5014635;28;20046;-64
2022/01/26 11:22:28;;;;;;;81.72;31.33;;;;;;;2.28;81.20;101574.19;4980438;28;20066;-63
2022/01/26 11:25:06;;;;;;;79.70;31.63;;;;;;;2.30;81.51;101587.09;5014630;28;20037;-63
2022/01/26 11:27:39;;;;;;;78.45;33.50;;;;;;;2.29;81.76;101604.09;4980810;28;20121;-63
2022/01/26 11:30:31;;;;;;;53.83;23.65;;;;;;;2.30;81.53;101608.44;4981060;28;20461;-63
2022/01/26 11:33:04;;;;;;;85.95;32.40;;;;;;;2.31;81.52;101612.78;4980950;28;20044;-64
2022/01/26 11:35:32;;;;;;;76.45;31.38;;;;;;;2.32;80.95;101618.81;4980779;28;20029;-64
2022/01/26 11:38:08;;;;;;;78.32;34.80;;;;;;;2.33;81.27;101610.38;4997369;28;20046;-64
2022/01/26 11:46:36;;;;;;;77.80;35.65;;;;;;;2.31;81.62;101596.56;5014538;28;20038;-63
2022/01/26 11:49:11;;;;;;;80.30;33.97;;;;;;;2.28;81.05;101600.66;4980665;28;20121;-63
2022/01/26 11:51:38;;;;;;;78.07;33.45;;;;;;;2.29;81.94;101606.66;4980533;28;20042;-63
2022/01/26 11:54:16;;;;;;;82.68;33.97;;;;;;;2.28;81.33;101610.00;4996733;28;20385;-63
2022/01/26 11:57:00;;;;;;;81.15;33.63;;;;;;;2.27;81.39;101609.13;5014520;28;20493;-62
2022/01/26 11:59:32;;;;;;;80.32;34.45;;;;;;;2.27;81.04;101610.78;5014214;28;20628;-63
2022/01/26 12:02:10;;;;;;;81.43;35.55;;;;;;;2.26;81.66;101603.88;4980062;28;20061;-62
2022/01/26 12:04:37;;;;;;;80.97;34.95;;;;;;;2.25;81.34;101610.66;4996766;28;20061;-63
2022/01/26 12:07:21;;;;;;;79.85;37.03;;;;;;;2.25;81.69;101607.22;5014458;28;20053;-63
2022/01/26 12:09:46;;;;;;;80.83;36.17;;;;;;;2.25;81.77;101591.88;5014255;28;20041;-63
2022/01/26 12:12:22;;;;;;;82.35;36.55;;;;;;;2.24;81.08;101601.22;4996455;28;20389;-63
2022/01/26 12:15:25;;;;;;;82.68;36.83;;;;;;;2.23;81.80;101599.41;5013936;28;20046;-63
2022/01/26 12:18:13;;;;;;;77.50;35.05;;;;;;;2.25;81.60;101610.66;4985762;28;20049;-63
2022/01/26 12:34:39;;;;;;;82.50;37.63;;;;;;;2.23;81.73;101578.09;5012876;28;20481;-62
2022/01/26 12:45:27;;;;;;;81.18;37.70;;;;;;;2.22;81.25;101560.94;5013346;28;20030;-62
2022/01/26 12:47:57;;;;;;;87.88;38.45;;;;;;;2.22;81.01;101560.94;4980006;28;20041;-63
2022/01/26 12:50:24;;;;;;;82.70;37.50;;;;;;;2.23;81.26;101552.50;4996681;28;20042;-63
2022/01/26 12:52:57;;;;;;;84.93;36.88;;;;;;;2.22;81.66;101551.59;4979741;28;20402;-63
2022/01/26 12:55:29;;;;;;;84.88;39.70;;;;;;;2.21;81.59;101547.25;4996083;28;20543;-64
2022/01/26 12:57:56;;;;;;;89.20;38.25;;;;;;;2.23;81.39;101537.16;4996299;28;20044;-64
2022/01/26 13:00:24;;;;;;;85.18;38.03;;;;;;;2.25;81.79;101556.06;5013437;28;20044;-63
2022/01/26 13:02:53;;;;;;;91.57;39.25;;;;;;;2.25;81.60;101556.06;4995468;28;20093;-64
2022/01/26 13:05:24;;;;;;;89.82;37.40;;;;;;;2.25;81.48;101561.19;4979554;28;20478;-64
2022/01/26 13:08:03;;;;;;;85.68;37.00;;;;;;;2.26;81.51;101562.94;4995932;28;20548;-63
2022/01/26 13:10:30;;;;;;;77.43;35.90;;;;;;;2.27;81.67;101565.63;4979603;28;20034;-64
2022/01/26 13:13:21;;;;;;;82.25;37.00;;;;;;;2.27;81.37;101560.50;4979516;28;20452;-63
2022/01/26 13:16:11;;;;;;;86.90;38.83;;;;;;;2.28;81.62;101556.25;5013187;28;20053;-63
2022/01/26 13:19:07;;;;;;;89.95;38.70;;;;;;;2.27;81.59;101559.59;4995732;28;20608;-63
2022/01/26 13:27:16;;;;;;;88.15;40.30;;;;;;;2.28;81.66;101563.94;4973054;28;20046;-63
2022/01/26 13:57:14;;;;;;;71.88;34.63;;;;;;;2.21;81.23;101564.28;4999140;28;20136;-63
2022/01/26 13:59:14;;;;;;;78.53;35.08;;;;;;;2.22;81.29;101563.50;5010296;28;20046;-63
2022/01/26 14:01:44;;;;;;;72.32;33.15;;;;;;;2.20;81.38;101559.94;4982610;28;20140;-63
2022/01/26 14:04:12;;;;;;;72.38;34.38;;;;;;;2.21;81.60;101564.28;4998547;28;20065;-62
2022/01/26 14:06:40;;;;;;;77.22;35.47;;;;;;;2.21;81.29;101554.03;4999071;28;20045;-63
2022/01/26 14:09:09;;;;;;;73.68;33.15;;;;;;;2.19;81.42;101542.81;4998818;28;20033;-63
2022/01/26 14:11:40;;;;;;;69.63;32.42;;;;;;;2.18;80.98;101531.66;5016003;28;20052;-62
2022/01/26 14:14:11;;;;;;;70.63;33.70;;;;;;;2.20;81.36;101530.13;4982794;28;20068;-63
2022/01/26 14:16:45;;;;;;;63.03;32.75;;;;;;;2.19;81.13;101523.22;4998779;28;20038;-64